North Kansas City, Missouri
Current Conditions -  °F | °C
As of 10:54 PM on Saturday 25 Oct 2014 (Local Time) from KMKC Reporting Station
Clear Clear  
Wind Chill: 65°   Ceiling: Unl
Heat Index: 65°   Visibility: 10mi
Dew Point: 52°   Wind: 0mph
Humidity: 63%   Direction: NA
Pressure: 29.99"   Gusts: NA
Location:  39.1494°N, 94.5733°W
Report Text: KMKC 260354Z 00000KT 10SM CLR 18/11 A2999 RMK AO2 SLP152 T01830111
Loading
Personal Weather Stations






























Interactive Weather Map
Tropical Storm Tracking
New forecast layout! Learn more

10-Day Weather Forecast

Advertisements
Track Severe Weather on mobile